sensor_id;sensor_type;location;lat;lon;timestamp;pressure;altitude;pressure_sealevel;temperature
15544;BMP180;7873;52.230;12.856;2023-02-28T00:00:09;102331.41;;;26.05
15544;BMP180;7873;52.230;12.856;2023-02-28T00:02:37;102332.56;;;26.02
15544;BMP180;7873;52.230;12.856;2023-02-28T00:05:05;102326.78;;;25.97
15544;BMP180;7873;52.230;12.856;2023-02-28T00:07:32;102330.66;;;25.95
15544;BMP180;7873;52.230;12.856;2023-02-28T00:09:59;102325.59;;;25.92
15544;BMP180;7873;52.230;12.856;2023-02-28T00:12:27;102325.34;;;25.85
15544;BMP180;7873;52.230;12.856;2023-02-28T00:14:54;102321.66;;;25.86
15544;BMP180;7873;52.230;12.856;2023-02-28T00:17:21;102328.50;;;25.81
15544;BMP180;7873;52.230;12.856;2023-02-28T00:19:47;102329.50;;;25.80
15544;BMP180;7873;52.230;12.856;2023-02-28T00:22:14;102327.88;;;25.69
15544;BMP180;7873;52.230;12.856;2023-02-28T00:24:41;102322.56;;;25.60
15544;BMP180;7873;52.230;12.856;2023-02-28T00:27:08;102322.13;;;25.64
15544;BMP180;7873;52.230;12.856;2023-02-28T00:29:36;102323.13;;;25.63
15544;BMP180;7873;52.230;12.856;2023-02-28T00:32:04;102317.59;;;25.65
15544;BMP180;7873;52.230;12.856;2023-02-28T00:34:31;102323.50;;;25.68
15544;BMP180;7873;52.230;12.856;2023-02-28T00:37:04;102324.19;;;25.70
15544;BMP180;7873;52.230;12.856;2023-02-28T00:39:33;102321.03;;;25.75
15544;BMP180;7873;52.230;12.856;2023-02-28T00:42:00;102316.63;;;25.74
15544;BMP180;7873;52.230;12.856;2023-02-28T00:44:27;102319.28;;;25.66
15544;BMP180;7873;52.230;12.856;2023-02-28T00:46:55;102323.66;;;25.67
15544;BMP180;7873;52.230;12.856;2023-02-28T00:49:22;102330.66;;;25.60
15544;BMP180;7873;52.230;12.856;2023-02-28T00:51:49;102329.97;;;25.58
15544;BMP180;7873;52.230;12.856;2023-02-28T00:54:16;102324.59;;;25.58
15544;BMP180;7873;52.230;12.856;2023-02-28T00:56:43;102321.84;;;25.50
15544;BMP180;7873;52.230;12.856;2023-02-28T00:59:11;102321.84;;;25.50
15544;BMP180;7873;52.230;12.856;2023-02-28T01:01:38;102321.28;;;25.47
15544;BMP180;7873;52.230;12.856;2023-02-28T01:04:06;102328.00;;;25.43
15544;BMP180;7873;52.230;12.856;2023-02-28T01:06:33;102326.63;;;25.39
15544;BMP180;7873;52.230;12.856;2023-02-28T01:09:01;102329.75;;;25.34
15544;BMP180;7873;52.230;12.856;2023-02-28T01:11:28;102326.22;;;25.34
15544;BMP180;7873;52.230;12.856;2023-02-28T01:13:55;102327.25;;;25.33
15544;BMP180;7873;52.230;12.856;2023-02-28T01:16:22;102321.28;;;25.29
15544;BMP180;7873;52.230;12.856;2023-02-28T01:18:48;102334.09;;;25.27
15544;BMP180;7873;52.230;12.856;2023-02-28T01:21:18;102328.00;;;25.25
15544;BMP180;7873;52.230;12.856;2023-02-28T01:23:46;102324.94;;;25.20
15544;BMP180;7873;52.230;12.856;2023-02-28T01:26:14;102330.44;;;25.19
15544;BMP180;7873;52.230;12.856;2023-02-28T01:28:42;102322.22;;;25.20
15544;BMP180;7873;52.230;12.856;2023-02-28T01:31:09;102320.34;;;25.21
15544;BMP180;7873;52.230;12.856;2023-02-28T01:33:36;102322.94;;;25.13
15544;BMP180;7873;52.230;12.856;2023-02-28T01:36:05;102318.00;;;25.08
15544;BMP180;7873;52.230;12.856;2023-02-28T01:38:34;102320.56;;;25.10
15544;BMP180;7873;52.230;12.856;2023-02-28T01:41:01;102316.00;;;25.10
15544;BMP180;7873;52.230;12.856;2023-02-28T01:43:29;102316.88;;;25.11
15544;BMP180;7873;52.230;12.856;2023-02-28T01:45:57;102316.31;;;25.07
15544;BMP180;7873;52.230;12.856;2023-02-28T01:48:27;102322.00;;;25.04
15544;BMP180;7873;52.230;12.856;2023-02-28T01:50:56;102317.44;;;25.05
15544;BMP180;7873;52.230;12.856;2023-02-28T01:53:31;102308.69;;;25.03
15544;BMP180;7873;52.230;12.856;2023-02-28T01:55:59;102314.06;;;25.03
15544;BMP180;7873;52.230;12.856;2023-02-28T01:58:27;102317.75;;;25.02
15544;BMP180;7873;52.230;12.856;2023-02-28T02:00:53;102313.22;;;25.02
15544;BMP180;7873;52.230;12.856;2023-02-28T02:03:20;102311.38;;;25.03
15544;BMP180;7873;52.230;12.856;2023-02-28T02:05:47;102312.00;;;24.97
15544;BMP180;7873;52.230;12.856;2023-02-28T02:08:17;102310.16;;;24.97
15544;BMP180;7873;52.230;12.856;2023-02-28T02:10:46;102308.59;;;24.95
15544;BMP180;7873;52.230;12.856;2023-02-28T02:14:06;102305.34;;;24.91
15544;BMP180;7873;52.230;12.856;2023-02-28T02:16:46;102307.81;;;24.85
15544;BMP180;7873;52.230;12.856;2023-02-28T02:19:31;102311.53;;;24.84
15544;BMP180;7873;52.230;12.856;2023-02-28T02:22:22;102308.97;;;24.82
15544;BMP180;7873;52.230;12.856;2023-02-28T02:25:18;102310.78;;;24.82
15544;BMP180;7873;52.230;12.856;2023-02-28T02:28:18;102308.25;;;24.80
15544;BMP180;7873;52.230;12.856;2023-02-28T02:31:04;102305.19;;;24.75
15544;BMP180;7873;52.230;12.856;2023-02-28T02:34:06;102307.88;;;24.75
15544;BMP180;7873;52.230;12.856;2023-02-28T02:36:37;102313.66;;;24.80
15544;BMP180;7873;52.230;12.856;2023-02-28T02:39:13;102311.53;;;24.84
15544;BMP180;7873;52.230;12.856;2023-02-28T02:41:47;102313.22;;;24.85
15544;BMP180;7873;52.230;12.856;2023-02-28T02:44:20;102318.59;;;24.85
15544;BMP180;7873;52.230;12.856;2023-02-28T02:46:50;102310.53;;;24.85
15544;BMP180;7873;52.230;12.856;2023-02-28T02:49:24;102308.97;;;24.82
15544;BMP180;7873;52.230;12.856;2023-02-28T02:51:52;102310.78;;;24.82
15544;BMP180;7873;52.230;12.856;2023-02-28T02:54:22;102313.66;;;24.80
15544;BMP180;7873;52.230;12.856;2023-02-28T02:56:55;102314.66;;;24.79
15544;BMP180;7873;52.230;12.856;2023-02-28T02:59:24;102307.72;;;24.77
15544;BMP180;7873;52.230;12.856;2023-02-28T03:01:53;102315.97;;;24.75
15544;BMP180;7873;52.230;12.856;2023-02-28T03:04:24;102313.41;;;24.74
15544;BMP180;7873;52.230;12.856;2023-02-28T03:06:51;102315.28;;;24.73
15544;BMP180;7873;52.230;12.856;2023-02-28T03:09:20;102313.72;;;24.71
15544;BMP180;7873;52.230;12.856;2023-02-28T03:11:48;102312.31;;;24.67
15544;BMP180;7873;52.230;12.856;2023-02-28T03:14:43;102311.47;;;24.66
15544;BMP180;7873;52.230;12.856;2023-02-28T03:17:48;102312.47;;;24.65
15544;BMP180;7873;52.230;12.856;2023-02-28T03:20:27;102307.53;;;24.61
15544;BMP180;7873;52.230;12.856;2023-02-28T03:23:06;102313.38;;;24.56
15544;BMP180;7873;52.230;12.856;2023-02-28T03:25:39;102322.59;;;24.54
15544;BMP180;7873;52.230;12.856;2023-02-28T03:28:13;102317.50;;;24.51
15544;BMP180;7873;52.230;12.856;2023-02-28T03:30:47;102320.31;;;24.49
15544;BMP180;7873;52.230;12.856;2023-02-28T03:33:21;102314.81;;;24.51
15544;BMP180;7873;52.230;12.856;2023-02-28T03:35:53;102321.16;;;24.59
15544;BMP180;7873;52.230;12.856;2023-02-28T03:38:25;102327.91;;;24.63
15544;BMP180;7873;52.230;12.856;2023-02-28T03:40:58;102325.22;;;24.63
15544;BMP180;7873;52.230;12.856;2023-02-28T03:43:31;102325.53;;;24.60
15544;BMP180;7873;52.230;12.856;2023-02-28T03:46:02;102322.13;;;24.58
15544;BMP180;7873;52.230;12.856;2023-02-28T03:48:36;102323.69;;;24.61
15544;BMP180;7873;52.230;12.856;2023-02-28T03:51:06;102332.06;;;24.58
15544;BMP180;7873;52.230;12.856;2023-02-28T03:53:36;102328.38;;;24.59
15544;BMP180;7873;52.230;12.856;2023-02-28T03:56:08;102329.53;;;24.56
15544;BMP180;7873;52.230;12.856;2023-02-28T03:58:41;102332.53;;;24.53
15544;BMP180;7873;52.230;12.856;2023-02-28T04:01:12;102330.81;;;24.52
15544;BMP180;7873;52.230;12.856;2023-02-28T04:03:39;102329.13;;;24.51
15544;BMP180;7873;52.230;12.856;2023-02-28T04:06:14;102334.63;;;24.50
15544;BMP180;7873;52.230;12.856;2023-02-28T04:08:42;102334.63;;;24.50
15544;BMP180;7873;52.230;12.856;2023-02-28T04:11:17;102330.38;;;24.47
15544;BMP180;7873;52.230;12.856;2023-02-28T04:13:45;102334.91;;;24.47
15544;BMP180;7873;52.230;12.856;2023-02-28T04:16:12;102330.66;;;24.44
15544;BMP180;7873;52.230;12.856;2023-02-28T04:18:38;102336.47;;;24.49
15544;BMP180;7873;52.230;12.856;2023-02-28T04:21:05;102328.97;;;24.43
15544;BMP180;7873;52.230;12.856;2023-02-28T04:23:33;102334.78;;;24.48
15544;BMP180;7873;52.230;12.856;2023-02-28T04:26:00;102337.63;;;24.47
15544;BMP180;7873;52.230;12.856;2023-02-28T04:28:27;102332.09;;;24.48
15544;BMP180;7873;52.230;12.856;2023-02-28T04:30:55;102338.63;;;24.46
15544;BMP180;7873;52.230;12.856;2023-02-28T04:33:22;102336.75;;;24.46
15544;BMP180;7873;52.230;12.856;2023-02-28T04:35:58;102336.47;;;24.49
15544;BMP180;7873;52.230;12.856;2023-02-28T04:38:24;102335.63;;;24.49
15544;BMP180;7873;52.230;12.856;2023-02-28T04:40:52;102336.22;;;24.52
15544;BMP180;7873;52.230;12.856;2023-02-28T04:43:19;102348.00;;;24.51
15544;BMP180;7873;52.230;12.856;2023-02-28T04:45:46;102342.31;;;24.45
15544;BMP180;7873;52.230;12.856;2023-02-28T04:48:12;102349.00;;;24.41
15544;BMP180;7873;52.230;12.856;2023-02-28T04:50:39;102348.28;;;24.39
15544;BMP180;7873;52.230;12.856;2023-02-28T04:53:06;102355.22;;;24.41
15544;BMP180;7873;52.230;12.856;2023-02-28T04:55:32;102354.59;;;24.47
15544;BMP180;7873;52.230;12.856;2023-02-28T04:58:00;102351.78;;;24.49
15544;BMP180;7873;52.230;12.856;2023-02-28T05:00:27;102355.03;;;24.62
15544;BMP180;7873;52.230;12.856;2023-02-28T05:02:54;102354.44;;;24.68
15544;BMP180;7873;52.230;12.856;2023-02-28T05:05:20;102360.34;;;24.71
15544;BMP180;7873;52.230;12.856;2023-02-28T05:07:47;102356.38;;;24.75
15544;BMP180;7873;52.230;12.856;2023-02-28T05:10:14;102353.69;;;24.75
15544;BMP180;7873;52.230;12.856;2023-02-28T05:12:41;102358.50;;;24.72
15544;BMP180;7873;52.230;12.856;2023-02-28T05:15:12;102355.25;;;24.68
15544;BMP180;7873;52.230;12.856;2023-02-28T05:17:39;102355.97;;;24.70
15544;BMP180;7873;52.230;12.856;2023-02-28T05:20:06;102353.25;;;24.70
15544;BMP180;7873;52.230;12.856;2023-02-28T05:22:34;102356.56;;;24.64
15544;BMP180;7873;52.230;12.856;2023-02-28T05:25:01;102356.34;;;24.48
15544;BMP180;7873;52.230;12.856;2023-02-28T05:27:28;102363.91;;;24.26
15544;BMP180;7873;52.230;12.856;2023-02-28T05:29:54;102364.81;;;24.07
15544;BMP180;7873;52.230;12.856;2023-02-28T05:32:22;102370.91;;;24.00
15544;BMP180;7873;52.230;12.856;2023-02-28T05:34:49;102362.44;;;23.95
15544;BMP180;7873;52.230;12.856;2023-02-28T05:37:16;102364.13;;;23.77
15544;BMP180;7873;52.230;12.856;2023-02-28T05:39:42;102359.03;;;23.74
15544;BMP180;7873;52.230;12.856;2023-02-28T05:42:09;102364.53;;;23.63
15544;BMP180;7873;52.230;12.856;2023-02-28T05:44:36;102364.28;;;23.57
15544;BMP180;7873;52.230;12.856;2023-02-28T05:47:03;102369.06;;;23.53
15544;BMP180;7873;52.230;12.856;2023-02-28T05:49:30;102369.34;;;23.50
15544;BMP180;7873;52.230;12.856;2023-02-28T05:51:57;102376.84;;;23.47
15544;BMP180;7873;52.230;12.856;2023-02-28T05:54:24;102380.53;;;23.55
15544;BMP180;7873;52.230;12.856;2023-02-28T05:56:50;102384.94;;;23.66
15544;BMP180;7873;52.230;12.856;2023-02-28T05:59:17;102381.53;;;23.54
15544;BMP180;7873;52.230;12.856;2023-02-28T06:01:45;102387.59;;;23.47
15544;BMP180;7873;52.230;12.856;2023-02-28T06:04:15;102385.63;;;23.49
15544;BMP180;7873;52.230;12.856;2023-02-28T06:06:44;102391.00;;;23.68
15544;BMP180;7873;52.230;12.856;2023-02-28T06:09:11;102384.50;;;23.79
15544;BMP180;7873;52.230;12.856;2023-02-28T06:11:38;102391.75;;;23.88
15544;BMP180;7873;52.230;12.856;2023-02-28T06:14:05;102385.09;;;23.92
15544;BMP180;7873;52.230;12.856;2023-02-28T06:16:34;102388.75;;;23.91
15544;BMP180;7873;52.230;12.856;2023-02-28T06:19:03;102396.13;;;23.89
15544;BMP180;7873;52.230;12.856;2023-02-28T06:21:30;102396.44;;;23.86
15544;BMP180;7873;52.230;12.856;2023-02-28T06:23:58;102401.50;;;23.80
15544;BMP180;7873;52.230;12.856;2023-02-28T06:26:25;102394.81;;;23.74
15544;BMP180;7873;52.230;12.856;2023-02-28T06:28:52;102396.09;;;23.71
15544;BMP180;7873;52.230;12.856;2023-02-28T06:31:19;102393.69;;;23.68
15544;BMP180;7873;52.230;12.856;2023-02-28T06:33:46;102404.59;;;23.66
15544;BMP180;7873;52.230;12.856;2023-02-28T06:36:14;102412.25;;;23.61
15544;BMP180;7873;52.230;12.856;2023-02-28T06:38:41;102405.16;;;23.60
15544;BMP180;7873;52.230;12.856;2023-02-28T06:41:10;102410.00;;;23.57
15544;BMP180;7873;52.230;12.856;2023-02-28T06:43:39;102417.31;;;23.55
15544;BMP180;7873;52.230;12.856;2023-02-28T06:46:08;102411.41;;;23.51
15544;BMP180;7873;52.230;12.856;2023-02-28T06:48:36;102419.31;;;23.53
15544;BMP180;7873;52.230;12.856;2023-02-28T06:51:05;102424.97;;;23.50
15544;BMP180;7873;52.230;12.856;2023-02-28T06:53:32;102419.03;;;23.46
15544;BMP180;7873;52.230;12.856;2023-02-28T06:55:59;102423.72;;;23.44
15544;BMP180;7873;52.230;12.856;2023-02-28T06:58:27;102423.84;;;23.43
15544;BMP180;7873;52.230;12.856;2023-02-28T07:00:53;102425.81;;;23.41
15544;BMP180;7873;52.230;12.856;2023-02-28T07:03:21;102434.00;;;23.39
15544;BMP180;7873;52.230;12.856;2023-02-28T07:05:48;102441.25;;;23.39
15544;BMP180;7873;52.230;12.856;2023-02-28T07:08:16;102436.84;;;23.38
15544;BMP180;7873;52.230;12.856;2023-02-28T07:10:43;102432.75;;;23.34
15544;BMP180;7873;52.230;12.856;2023-02-28T07:13:09;102441.94;;;23.31
15544;BMP180;7873;52.230;12.856;2023-02-28T07:15:37;102436.84;;;23.28
15544;BMP180;7873;52.230;12.856;2023-02-28T07:18:04;102445.88;;;23.27
15544;BMP180;7873;52.230;12.856;2023-02-28T07:20:31;102443.31;;;23.26
15544;BMP180;7873;52.230;12.856;2023-02-28T07:22:58;102442.50;;;23.25
15544;BMP180;7873;52.230;12.856;2023-02-28T07:25:26;102445.28;;;23.24
15544;BMP180;7873;52.230;12.856;2023-02-28T07:27:53;102448.97;;;23.23
15544;BMP180;7873;52.230;12.856;2023-02-28T07:30:20;102444.72;;;23.20
15544;BMP180;7873;52.230;12.856;2023-02-28T07:32:48;102450.25;;;23.19
15544;BMP180;7873;52.230;12.856;2023-02-28T07:35:15;102447.41;;;23.20
15544;BMP180;7873;52.230;12.856;2023-02-28T07:37:42;102447.56;;;23.19
15544;BMP180;7873;52.230;12.856;2023-02-28T07:40:10;102443.16;;;23.18
15544;BMP180;7873;52.230;12.856;2023-02-28T07:42:38;102443.28;;;23.16
15544;BMP180;7873;52.230;12.856;2023-02-28T07:45:06;102442.56;;;23.14
15544;BMP180;7873;52.230;12.856;2023-02-28T07:47:33;102445.28;;;23.14
15544;BMP180;7873;52.230;12.856;2023-02-28T07:50:01;102448.94;;;23.13
15544;BMP180;7873;52.230;12.856;2023-02-28T07:52:28;102436.66;;;23.11
15544;BMP180;7873;52.230;12.856;2023-02-28T07:54:55;102445.53;;;23.11
15544;BMP180;7873;52.230;12.856;2023-02-28T07:57:22;102444.91;;;23.08
15544;BMP180;7873;52.230;12.856;2023-02-28T07:59:48;102450.09;;;23.11
15544;BMP180;7873;52.230;12.856;2023-02-28T08:02:17;102443.09;;;23.08
15544;BMP180;7873;52.230;12.856;2023-02-28T08:04:44;102443.81;;;23.10
15544;BMP180;7873;52.230;12.856;2023-02-28T08:07:13;102453.59;;;23.11
15544;BMP180;7873;52.230;12.856;2023-02-28T08:09:40;102452.63;;;23.12
15544;BMP180;7873;52.230;12.856;2023-02-28T08:12:08;102456.28;;;23.11
15544;BMP180;7873;52.230;12.856;2023-02-28T08:14:35;102443.72;;;23.12
15544;BMP180;7873;52.230;12.856;2023-02-28T08:17:02;102448.22;;;23.11
15544;BMP180;7873;52.230;12.856;2023-02-28T08:19:29;102458.16;;;23.11
15544;BMP180;7873;52.230;12.856;2023-02-28T08:21:56;102456.53;;;23.08
15544;BMP180;7873;52.230;12.856;2023-02-28T08:24:24;102458.38;;;23.08
15544;BMP180;7873;52.230;12.856;2023-02-28T08:26:51;102451.44;;;23.05
15544;BMP180;7873;52.230;12.856;2023-02-28T08:29:18;102456.09;;;23.03
15544;BMP180;7873;52.230;12.856;2023-02-28T08:31:44;102458.19;;;23.00
15544;BMP180;7873;52.230;12.856;2023-02-28T08:34:13;102461.03;;;22.98
15544;BMP180;7873;52.230;12.856;2023-02-28T08:36:40;102461.28;;;22.95
15544;BMP180;7873;52.230;12.856;2023-02-28T08:39:08;102469.22;;;22.97
15544;BMP180;7873;52.230;12.856;2023-02-28T08:41:37;102459.59;;;22.94
15544;BMP180;7873;52.230;12.856;2023-02-28T08:44:04;102465.09;;;22.93
15544;BMP180;7873;52.230;12.856;2023-02-28T08:46:31;102465.94;;;22.93
15544;BMP180;7873;52.230;12.856;2023-02-28T08:48:57;102455.47;;;22.90
15544;BMP180;7873;52.230;12.856;2023-02-28T08:51:27;102465.50;;;22.88
15544;BMP180;7873;52.230;12.856;2023-02-28T08:53:55;102467.47;;;22.86
15544;BMP180;7873;52.230;12.856;2023-02-28T08:56:23;102462.38;;;22.83
15544;BMP180;7873;52.230;12.856;2023-02-28T08:58:51;102459.53;;;22.85
15544;BMP180;7873;52.230;12.856;2023-02-28T09:01:22;102459.81;;;22.82
15544;BMP180;7873;52.230;12.856;2023-02-28T09:03:50;102464.47;;;22.80
15544;BMP180;7873;52.230;12.856;2023-02-28T09:06:19;102457.41;;;22.79
15544;BMP180;7873;52.230;12.856;2023-02-28T09:08:46;102455.56;;;22.79
15544;BMP180;7873;52.230;12.856;2023-02-28T09:11:13;102453.72;;;22.80
15544;BMP180;7873;52.230;12.856;2023-02-28T09:13:40;102462.91;;;22.77
15544;BMP180;7873;52.230;12.856;2023-02-28T09:16:10;102458.94;;;22.72
15544;BMP180;7873;52.230;12.856;2023-02-28T09:18:38;102457.22;;;22.71
15544;BMP180;7873;52.230;12.856;2023-02-28T09:21:06;102454.66;;;22.69
15544;BMP180;7873;52.230;12.856;2023-02-28T09:23:33;102454.94;;;22.66
15544;BMP180;7873;52.230;12.856;2023-02-28T09:26:04;102464.69;;;22.67
15544;BMP180;7873;52.230;12.856;2023-02-28T09:28:31;102462.88;;;22.68
15544;BMP180;7873;52.230;12.856;2023-02-28T09:30:57;102469.50;;;22.64
15544;BMP180;7873;52.230;12.856;2023-02-28T09:33:26;102466.22;;;22.60
15544;BMP180;7873;52.230;12.856;2023-02-28T09:35:58;102467.19;;;22.59
15544;BMP180;7873;52.230;12.856;2023-02-28T09:38:25;102468.19;;;22.58
15544;BMP180;7873;52.230;12.856;2023-02-28T09:40:54;102462.09;;;22.56
15544;BMP180;7873;52.230;12.856;2023-02-28T09:43:22;102466.75;;;22.54
15544;BMP180;7873;52.230;12.856;2023-02-28T09:45:53;102456.13;;;22.53
15544;BMP180;7873;52.230;12.856;2023-02-28T09:48:28;102456.28;;;22.51
15544;BMP180;7873;52.230;12.856;2023-02-28T09:51:00;102456.41;;;22.50
15544;BMP180;7873;52.230;12.856;2023-02-28T09:53:30;102454.69;;;22.49
15544;BMP180;7873;52.230;12.856;2023-02-28T09:56:01;102453.00;;;22.48
15544;BMP180;7873;52.230;12.856;2023-02-28T09:58:33;102460.06;;;22.49
15544;BMP180;7873;52.230;12.856;2023-02-28T10:01:09;102463.84;;;22.46
15544;BMP180;7873;52.230;12.856;2023-02-28T10:03:39;102459.63;;;22.44
15544;BMP180;7873;52.230;12.856;2023-02-28T10:06:12;102450.84;;;22.42
15544;BMP180;7873;52.230;12.856;2023-02-28T10:08:45;102465.38;;;22.39
15544;BMP180;7873;52.230;12.856;2023-02-28T10:11:16;102462.06;;;22.36
15544;BMP180;7873;52.230;12.856;2023-02-28T10:13:52;102458.38;;;22.37
15544;BMP180;7873;52.230;12.856;2023-02-28T10:16:25;102460.25;;;22.36
15544;BMP180;7873;52.230;12.856;2023-02-28T10:18:58;102453.44;;;22.32
15544;BMP180;7873;52.230;12.856;2023-02-28T10:21:33;102447.09;;;22.33
15544;BMP180;7873;52.230;12.856;2023-02-28T10:24:04;102452.31;;;22.35
15544;BMP180;7873;52.230;12.856;2023-02-28T10:26:32;102444.50;;;22.32
15544;BMP180;7873;52.230;12.856;2023-02-28T10:28:59;102444.50;;;22.32
15544;BMP180;7873;52.230;12.856;2023-02-28T10:31:28;102449.06;;;22.31
15544;BMP180;7873;52.230;12.856;2023-02-28T10:33:56;102450.03;;;22.30
15544;BMP180;7873;52.230;12.856;2023-02-28T10:36:23;102456.38;;;22.29
15544;BMP180;7873;52.230;12.856;2023-02-28T10:38:50;102446.75;;;22.27
15544;BMP180;7873;52.230;12.856;2023-02-28T10:41:27;102445.88;;;22.26
15544;BMP180;7873;52.230;12.856;2023-02-28T10:44:13;102448.97;;;22.22
15544;BMP180;7873;52.230;12.856;2023-02-28T10:46:41;102451.50;;;22.23
15544;BMP180;7873;52.230;12.856;2023-02-28T10:49:17;102448.25;;;22.20
15544;BMP180;7873;52.230;12.856;2023-02-28T10:51:44;102450.94;;;22.20
15544;BMP180;7873;52.230;12.856;2023-02-28T10:54:20;102446.56;;;22.19
15544;BMP180;7873;52.230;12.856;2023-02-28T10:57:14;102440.34;;;22.18
15544;BMP180;7873;52.230;12.856;2023-02-28T10:59:41;102439.63;;;22.16
15544;BMP180;7873;52.230;12.856;2023-02-28T11:02:31;102443.28;;;22.15
15544;BMP180;7873;52.230;12.856;2023-02-28T11:04:59;102446.06;;;22.14
15544;BMP180;7873;52.230;12.856;2023-02-28T11:07:26;102451.44;;;22.14
15544;BMP180;7873;52.230;12.856;2023-02-28T11:09:55;102448.66;;;22.15
15544;BMP180;7873;52.230;12.856;2023-02-28T11:12:25;102442.56;;;22.13
15544;BMP180;7873;52.230;12.856;2023-02-28T11:14:55;102438.91;;;22.14
15544;BMP180;7873;52.230;12.856;2023-02-28T11:17:25;102434.50;;;22.13
15544;BMP180;7873;52.230;12.856;2023-02-28T11:19:55;102429.25;;;22.12
15544;BMP180;7873;52.230;12.856;2023-02-28T11:22:26;102434.06;;;22.08
15544;BMP180;7873;52.230;12.856;2023-02-28T11:24:57;102431.22;;;22.10
15544;BMP180;7873;52.230;12.856;2023-02-28T11:27:45;102434.88;;;22.09
15544;BMP180;7873;52.230;12.856;2023-02-28T11:30:33;102426.00;;;22.08
15544;BMP180;7873;52.230;12.856;2023-02-28T11:33:07;102423.16;;;22.10
15544;BMP180;7873;52.230;12.856;2023-02-28T11:35:45;102424.75;;;22.12
15544;BMP180;7873;52.230;12.856;2023-02-28T11:38:15;102420.22;;;22.13
15544;BMP180;7873;52.230;12.856;2023-02-28T11:40:47;102411.47;;;22.11
15544;BMP180;7873;52.230;12.856;2023-02-28T11:43:30;102417.81;;;22.10
15544;BMP180;7873;52.230;12.856;2023-02-28T11:46:10;102422.34;;;22.09
15544;BMP180;7873;52.230;12.856;2023-02-28T11:48:49;102416.25;;;22.07
15544;BMP180;7873;52.230;12.856;2023-02-28T11:51:22;102401.97;;;22.07
15544;BMP180;7873;52.230;12.856;2023-02-28T11:54:08;102398.47;;;22.06
15544;BMP180;7873;52.230;12.856;2023-02-28T11:56:41;102390.53;;;22.05
15544;BMP180;7873;52.230;12.856;2023-02-28T11:59:34;102393.22;;;22.05
15544;BMP180;7873;52.230;12.856;2023-02-28T12:02:15;102394.31;;;22.02
15544;BMP180;7873;52.230;12.856;2023-02-28T12:04:53;102387.84;;;22.05
15544;BMP180;7873;52.230;12.856;2023-02-28T12:07:29;102389.53;;;22.06
15544;BMP180;7873;52.230;12.856;2023-02-28T12:10:05;102389.81;;;22.03
15544;BMP180;7873;52.230;12.856;2023-02-28T12:12:43;102385.03;;;22.06
15544;BMP180;7873;52.230;12.856;2023-02-28T12:15:42;102383.19;;;22.07
15544;BMP180;7873;52.230;12.856;2023-02-28T12:18:24;102385.75;;;22.08
15544;BMP180;7873;52.230;12.856;2023-02-28T12:20:57;102383.34;;;22.05
15544;BMP180;7873;52.230;12.856;2023-02-28T12:23:48;102389.69;;;22.04
15544;BMP180;7873;52.230;12.856;2023-02-28T12:26:23;102390.41;;;22.06
15544;BMP180;7873;52.230;12.856;2023-02-28T12:28:59;102390.25;;;22.08
15544;BMP180;7873;52.230;12.856;2023-02-28T12:31:29;102387.84;;;22.05
15544;BMP180;7873;52.230;12.856;2023-02-28T12:34:01;102390.53;;;22.05
15544;BMP180;7873;52.230;12.856;2023-02-28T12:36:29;102377.09;;;22.05
15544;BMP180;7873;52.230;12.856;2023-02-28T12:39:00;102377.22;;;22.03
15544;BMP180;7873;52.230;12.856;2023-02-28T12:41:33;102364.94;;;22.01
15544;BMP180;7873;52.230;12.856;2023-02-28T12:44:04;102376.28;;;22.04
15544;BMP180;7873;52.230;12.856;2023-02-28T12:46:35;102368.06;;;22.06
15544;BMP180;7873;52.230;12.856;2023-02-28T12:49:06;102366.25;;;22.06
15544;BMP180;7873;52.230;12.856;2023-02-28T12:51:35;102371.47;;;22.08
15544;BMP180;7873;52.230;12.856;2023-02-28T12:54:14;102369.38;;;22.11
15544;BMP180;7873;52.230;12.856;2023-02-28T12:56:47;102367.28;;;22.15
15544;BMP180;7873;52.230;12.856;2023-02-28T12:59:22;102366.28;;;22.16
15544;BMP180;7873;52.230;12.856;2023-02-28T13:02:18;102361.91;;;22.15
15544;BMP180;7873;52.230;12.856;2023-02-28T13:05:05;102350.06;;;22.17
15544;BMP180;7873;52.230;12.856;2023-02-28T13:07:53;102349.25;;;22.17
15544;BMP180;7873;52.230;12.856;2023-02-28T13:10:24;102351.06;;;22.16
15544;BMP180;7873;52.230;12.856;2023-02-28T13:13:05;102347.38;;;22.17
15544;BMP180;7873;52.230;12.856;2023-02-28T13:15:31;102341.03;;;22.18
15544;BMP180;7873;52.230;12.856;2023-02-28T13:18:03;102337.38;;;22.19
15544;BMP180;7873;52.230;12.856;2023-02-28T13:20:34;102336.53;;;22.19
15544;BMP180;7873;52.230;12.856;2023-02-28T13:23:02;102336.53;;;22.19
15544;BMP180;7873;52.230;12.856;2023-02-28T13:25:51;102337.63;;;22.16
15544;BMP180;7873;52.230;12.856;2023-02-28T13:35:36;102317.28;;;22.14
15544;BMP180;7873;52.230;12.856;2023-02-28T13:38:17;102310.78;;;22.16
15544;BMP180;7873;52.230;12.856;2023-02-28T13:40:48;102306.84;;;22.20
15544;BMP180;7873;52.230;12.856;2023-02-28T13:43:17;102304.78;;;22.24
15544;BMP180;7873;52.230;12.856;2023-02-28T13:46:06;102301.81;;;22.27
15544;BMP180;7873;52.230;12.856;2023-02-28T13:48:34;102305.22;;;22.29
15544;BMP180;7873;52.230;12.856;2023-02-28T13:54:18;102304.66;;;22.35
15544;BMP180;7873;52.230;12.856;2023-02-28T13:56:57;102308.81;;;22.39
15544;BMP180;7873;52.230;12.856;2023-02-28T13:59:32;102306.72;;;22.42
15544;BMP180;7873;52.230;12.856;2023-02-28T14:02:26;102298.53;;;22.44
15544;BMP180;7873;52.230;12.856;2023-02-28T14:05:01;102291.31;;;22.44
15544;BMP180;7873;52.230;12.856;2023-02-28T14:07:31;102301.94;;;22.46
15544;BMP180;7873;52.230;12.856;2023-02-28T14:10:02;102304.47;;;22.47
15544;BMP180;7873;52.230;12.856;2023-02-28T14:12:57;102299.25;;;22.46
15544;BMP180;7873;52.230;12.856;2023-02-28T14:15:39;102291.91;;;22.48
15544;BMP180;7873;52.230;12.856;2023-02-28T14:18:16;102296.41;;;22.47
15544;BMP180;7873;52.230;12.856;2023-02-28T14:20:46;102292.03;;;22.46
15544;BMP180;7873;52.230;12.856;2023-02-28T14:23:21;102293.59;;;22.49
15544;BMP180;7873;52.230;12.856;2023-02-28T14:26:01;102294.59;;;22.48
15544;BMP180;7873;52.230;12.856;2023-02-28T14:28:45;102288.50;;;22.46